Time;durP1;ratioP1;P1;durP2;ratioP2;P2;SDS_P1;SDS_P2;PMS_P1;PMS_P2;Temp;Humidity;BMP_temperature;BMP_pressure;BME280_temperature;BME280_humidity;BME280_pressure;Samples;Min_cycle;Max_cycle;Signal;HPM_P1;HPM_P2
2022/06/27 00:02:09;;;;;;;7.50;4.50;;;;;;;19.04;64.26;99084.20;3889808;89;21104;-88
2022/06/27 00:08:11;;;;;;;8.25;5.42;;;;;;;19.05;64.82;99084.36;3899141;90;21079;-90
2022/06/27 00:14:12;;;;;;;7.78;5.12;;;;;;;18.99;65.02;99084.70;3885813;90;21097;-93
2022/06/27 00:20:14;;;;;;;10.20;5.00;;;;;;;18.88;65.21;99086.31;3892156;90;21176;-86
2022/06/27 00:26:15;;;;;;;7.85;4.65;;;;;;;18.83;65.58;99088.19;3845503;91;21456;-88
2022/06/27 00:32:17;;;;;;;7.67;5.28;;;;;;;18.72;65.78;99087.63;3887287;90;21171;-88
2022/06/27 00:38:21;;;;;;;10.58;5.12;;;;;;;18.68;66.19;99090.46;3887171;90;21245;-89
2022/06/27 00:44:39;;;;;;;8.40;5.35;;;;;;;18.61;66.63;99085.67;3892863;90;21568;-90
2022/06/27 00:50:42;;;;;;;7.15;5.00;;;;;;;18.49;67.06;99087.09;3848669;91;21107;-89
2022/06/27 00:56:43;;;;;;;9.30;5.10;;;;;;;18.44;67.47;99095.91;3848418;91;22590;-88
2022/06/27 01:02:47;;;;;;;7.62;4.80;;;;;;;18.38;67.77;99089.89;3831151;91;21214;-88
2022/06/27 01:08:50;;;;;;;6.45;4.58;;;;;;;18.27;68.60;99093.42;3849760;91;22103;-88
2022/06/27 01:14:51;;;;;;;10.95;4.97;;;;;;;18.36;69.05;99090.88;3851557;91;21140;-90
2022/06/27 01:20:53;;;;;;;9.35;4.62;;;;;;;18.35;69.54;99087.94;3888120;90;21727;-87
2022/06/27 01:26:54;;;;;;;6.72;4.87;;;;;;;18.29;69.73;99096.56;3899480;89;21133;-87
2022/06/27 01:32:57;;;;;;;7.58;4.25;;;;;;;18.08;69.84;99099.10;3896628;90;21389;-87
2022/06/27 01:38:59;;;;;;;7.30;4.20;;;;;;;17.90;70.13;99091.68;3825763;91;21793;-87
2022/06/27 01:45:01;;;;;;;6.15;5.30;;;;;;;17.90;70.86;99095.08;3885357;90;21214;-88
2022/06/27 01:51:09;;;;;;;6.70;4.37;;;;;;;17.68;71.01;99093.84;3887048;90;21203;-88
2022/06/27 01:57:11;;;;;;;6.87;5.27;;;;;;;17.62;71.66;99099.06;3888201;90;21166;-87
2022/06/27 02:03:14;;;;;;;8.50;6.05;;;;;;;17.51;71.51;99091.52;3889236;90;21115;-87
2022/06/27 02:09:17;;;;;;;5.80;4.95;;;;;;;17.34;72.05;99088.39;3891565;90;21097;-90
2022/06/27 02:15:18;;;;;;;8.33;5.78;;;;;;;17.21;72.47;99092.94;3850748;91;22498;-88
2022/06/27 02:21:24;;;;;;;7.58;4.75;;;;;;;17.11;73.11;99094.65;3899678;90;21589;-86
2022/06/27 02:27:30;;;;;;;6.03;4.62;;;;;;;17.09;73.41;99105.34;3909872;89;27183;-86
2022/06/27 02:33:41;;;;;;;7.83;5.47;;;;;;;17.05;73.90;99103.20;3902106;89;21189;-88
2022/06/27 02:39:46;;;;;;;6.50;4.80;;;;;;;16.86;73.95;99098.34;3890999;90;21130;-87
2022/06/27 02:45:48;;;;;;;5.58;4.80;;;;;;;17.04;74.65;99101.64;3896428;90;21140;-89
2022/06/27 02:52:04;;;;;;;7.45;5.30;;;;;;;17.01;74.72;99105.83;3888270;90;21168;-86
2022/06/27 02:58:15;;;;;;;7.72;5.87;;;;;;;16.82;74.83;99096.20;3893752;89;21139;-90
2022/06/27 03:04:17;;;;;;;5.83;4.80;;;;;;;16.66;75.55;99100.13;3890650;90;21066;-89
2022/06/27 03:10:18;;;;;;;9.63;4.65;;;;;;;16.84;75.98;99104.88;3893346;90;21077;-88
2022/06/27 03:16:24;;;;;;;5.15;4.47;;;;;;;17.05;76.10;99106.59;3891346;90;22055;-87
2022/06/27 03:22:27;;;;;;;6.62;5.50;;;;;;;17.20;76.32;99099.66;3888928;90;22035;-87
2022/06/27 03:28:29;;;;;;;5.95;4.40;;;;;;;17.24;76.40;99106.70;3892386;90;21347;-89
2022/06/27 03:34:33;;;;;;;5.08;4.55;;;;;;;17.31;76.50;99105.83;3890933;90;21172;-88
2022/06/27 03:40:40;;;;;;;8.20;5.20;;;;;;;17.36;76.66;99107.34;3890029;90;21162;-90
2022/06/27 03:46:41;;;;;;;7.30;4.87;;;;;;;17.18;77.06;99112.52;3891498;90;21436;-86
2022/06/27 03:52:44;;;;;;;7.45;5.55;;;;;;;17.30;77.33;99118.10;3888845;90;21106;-88
2022/06/27 03:58:47;;;;;;;8.58;6.30;;;;;;;17.37;77.56;99122.14;3893720;90;21200;-87
2022/06/27 04:04:49;;;;;;;14.35;6.25;;;;;;;17.37;77.81;99129.05;3874996;90;21154;-89
2022/06/27 04:10:51;;;;;;;8.53;6.12;;;;;;;17.39;78.26;99123.89;3920834;89;21158;-89
2022/06/27 04:16:54;;;;;;;8.70;5.97;;;;;;;17.51;78.59;99123.97;3830047;89;48075;-89
2022/06/27 04:23:12;;;;;;;7.67;6.60;;;;;;;17.58;78.67;99132.95;3836855;91;21149;-89
2022/06/27 04:29:32;;;;;;;7.50;5.60;;;;;;;17.66;79.04;99135.80;3832649;91;21080;-88
2022/06/27 04:35:36;;;;;;;6.40;5.65;;;;;;;17.82;79.43;99144.84;3824708;91;21116;-88
2022/06/27 04:41:39;;;;;;;9.83;5.47;;;;;;;17.97;79.58;99149.73;3828606;91;21715;-88
2022/06/27 04:47:42;;;;;;;13.43;6.85;;;;;;;18.15;79.66;99151.60;3847606;91;21803;-87
2022/06/27 04:53:51;;;;;;;9.68;5.85;;;;;;;18.35;79.34;99148.91;3858123;90;73488;-84
2022/06/27 04:59:56;;;;;;;6.00;5.40;;;;;;;18.50;79.54;99152.41;3887276;91;21849;-84
2022/06/27 05:06:22;;;;;;;8.40;5.12;;;;;;;18.65;79.56;99153.70;3864286;91;21121;-85
2022/06/27 05:12:28;;;;;;;6.65;5.10;;;;;;;18.88;79.41;99153.48;3864844;91;21062;-84
2022/06/27 05:18:31;;;;;;;9.87;5.67;;;;;;;19.05;79.69;99160.66;3861966;90;21071;-85
2022/06/27 05:24:40;;;;;;;7.55;5.28;;;;;;;19.25;79.42;99157.27;3859976;91;21102;-85
2022/06/27 05:30:47;;;;;;;10.70;6.05;;;;;;;19.48;79.36;99155.81;3853017;90;21069;-84
2022/06/27 05:36:56;;;;;;;8.23;4.70;;;;;;;19.75;78.94;99163.31;3878667;90;21396;-84
2022/06/27 05:42:59;;;;;;;9.68;5.35;;;;;;;20.06;78.82;99154.86;3854330;91;21090;-84
2022/06/27 05:49:11;;;;;;;7.75;4.78;;;;;;;20.33;78.53;99162.95;3860675;91;21172;-84
2022/06/27 05:55:22;;;;;;;9.73;5.12;;;;;;;20.58;78.47;99173.58;3869011;91;21115;-83
2022/06/27 06:01:27;;;;;;;11.35;4.95;;;;;;;20.84;78.12;99169.72;3864424;90;21039;-84
2022/06/27 06:07:35;;;;;;;6.33;5.20;;;;;;;21.11;77.62;99179.90;3880270;91;21074;-84
2022/06/27 06:13:38;;;;;;;5.53;4.35;;;;;;;21.30;77.16;99183.13;3862888;90;20999;-83
2022/06/27 06:19:40;;;;;;;6.62;4.25;;;;;;;21.52;76.85;99180.48;3880720;92;21107;-84
2022/06/27 06:25:48;;;;;;;6.72;4.37;;;;;;;21.79;76.29;99185.06;3854529;89;21075;-85
2022/06/27 06:31:54;;;;;;;7.37;4.97;;;;;;;22.06;75.90;99186.02;3876930;90;21066;-84
2022/06/27 06:38:02;;;;;;;5.33;4.35;;;;;;;22.34;74.56;99191.45;3878599;90;21910;-85
2022/06/27 06:44:11;;;;;;;11.90;4.70;;;;;;;22.63;74.23;99188.52;3879698;90;21022;-84
2022/06/27 06:50:38;;;;;;;5.85;4.58;;;;;;;22.88;73.76;99189.83;3883919;90;21073;-84
2022/06/27 06:56:41;;;;;;;6.78;4.87;;;;;;;23.26;73.59;99187.66;3881210;89;21094;-84
2022/06/27 07:02:44;;;;;;;7.45;4.47;;;;;;;23.75;72.97;99184.98;3878164;90;21702;-85
2022/06/27 07:08:46;;;;;;;8.38;4.17;;;;;;;24.44;72.54;99178.58;3880649;90;21630;-85
2022/06/27 07:14:49;;;;;;;7.08;4.37;;;;;;;25.19;71.48;99180.34;3878281;90;21069;-86
2022/06/27 07:21:09;;;;;;;7.75;4.20;;;;;;;25.85;70.84;99173.05;3882582;90;21106;-86
2022/06/27 07:27:17;;;;;;;9.63;4.30;;;;;;;26.56;69.40;99174.54;3883533;90;21060;-85
2022/06/27 07:33:22;;;;;;;6.12;4.03;;;;;;;27.22;67.94;99170.91;3883201;90;21091;-86
2022/06/27 07:39:45;;;;;;;5.60;4.12;;;;;;;27.47;66.13;99175.38;3861834;90;21055;-86
2022/06/27 07:45:48;;;;;;;4.55;3.62;;;;;;;27.88;65.47;99179.16;3877913;90;21055;-87
2022/06/27 07:51:55;;;;;;;7.12;4.40;;;;;;;28.32;63.29;99180.45;3879424;90;21921;-87
2022/06/27 07:57:57;;;;;;;6.65;3.72;;;;;;;28.44;63.19;99171.67;3884558;92;21046;-86
2022/06/27 08:03:59;;;;;;;6.35;4.22;;;;;;;28.52;60.77;99172.09;3882121;90;21019;-86
2022/06/27 08:10:07;;;;;;;9.10;4.95;;;;;;;28.58;60.17;99168.70;3879826;90;21072;-86
2022/06/27 08:16:40;;;;;;;6.72;4.55;;;;;;;28.71;59.63;99164.88;3888893;90;21667;-86
2022/06/27 08:22:42;;;;;;;9.80;4.42;;;;;;;28.84;58.62;99170.95;3881684;90;21054;-85
2022/06/27 08:28:56;;;;;;;6.47;4.30;;;;;;;28.87;56.91;99162.28;3877175;90;21091;-86
2022/06/27 08:34:58;;;;;;;7.10;4.35;;;;;;;28.87;54.13;99164.31;3867108;90;32560;-87
2022/06/27 08:40:59;;;;;;;4.97;3.85;;;;;;;28.98;55.91;99165.86;3852509;91;21999;-86
2022/06/27 08:47:03;;;;;;;4.92;4.40;;;;;;;29.17;54.84;99162.90;3847199;91;21095;-86
2022/06/27 08:53:05;;;;;;;5.45;4.20;;;;;;;29.27;53.36;99174.13;3855552;91;21018;-86
2022/06/27 08:59:06;;;;;;;5.50;4.03;;;;;;;29.20;53.02;99164.72;3856391;91;21051;-86
2022/06/27 09:05:18;;;;;;;5.67;4.20;;;;;;;29.28;52.67;99158.78;3849195;91;21044;-87
2022/06/27 09:11:32;;;;;;;7.00;4.05;;;;;;;29.41;52.22;99160.59;3852529;91;21078;-86
2022/06/27 09:24:10;;;;;;;6.28;4.30;;;;;;;29.88;49.16;99162.79;3844122;91;21024;-85
2022/06/27 09:30:24;;;;;;;8.45;4.12;;;;;;;29.90;48.30;99157.42;3849817;91;21052;-86
2022/06/27 09:36:34;;;;;;;4.10;3.60;;;;;;;29.98;47.11;99155.69;3855396;91;21135;-87
2022/06/27 09:42:42;;;;;;;7.12;3.75;;;;;;;30.32;47.22;99148.25;3854228;91;21061;-86
2022/06/27 09:48:46;;;;;;;4.85;3.60;;;;;;;30.81;47.51;99146.30;3840296;91;21127;-86
2022/06/27 09:54:53;;;;;;;4.70;3.70;;;;;;;31.13;46.88;99142.05;3838235;91;21061;-87
2022/06/27 10:00:55;;;;;;;4.72;3.58;;;;;;;31.44;46.19;99137.61;3854955;91;21107;-86
2022/06/27 10:07:03;;;;;;;6.80;3.87;;;;;;;31.72;45.89;99133.37;3852304;91;21087;-87
2022/06/27 10:13:11;;;;;;;4.30;3.90;;;;;;;31.92;45.31;99129.66;3840974;91;21146;-86
2022/06/27 10:25:54;;;;;;;6.15;3.90;;;;;;;32.09;43.41;99131.03;3825918;91;21615;-87
2022/06/27 10:32:12;;;;;;;4.22;3.50;;;;;;;32.48;43.24;99127.47;3847307;91;21603;-88
2022/06/27 10:38:49;;;;;;;4.97;3.30;;;;;;;32.93;43.10;99115.33;3856900;91;21134;-87
2022/06/27 10:45:26;;;;;;;4.53;3.55;;;;;;;33.38;42.25;99108.84;3852136;91;21176;-87
2022/06/27 10:51:55;;;;;;;5.47;3.40;;;;;;;33.79;42.06;99100.90;3842235;91;21052;-87
2022/06/27 10:57:58;;;;;;;3.75;3.17;;;;;;;34.20;41.44;99101.55;3851308;91;21054;-86
2022/06/27 11:04:00;;;;;;;4.65;3.58;;;;;;;34.39;40.73;99095.30;3847633;91;21098;-87
2022/06/27 11:10:13;;;;;;;5.92;3.58;;;;;;;34.62;40.15;99081.69;3853707;91;21158;-87
2022/06/27 11:16:35;;;;;;;5.10;3.65;;;;;;;34.69;39.65;99078.89;3845312;91;21139;-87
2022/06/27 11:22:38;;;;;;;4.22;3.83;;;;;;;34.96;38.79;99071.30;3855574;91;21096;-87
2022/06/27 11:35:06;;;;;;;3.90;3.10;;;;;;;35.66;38.59;99060.06;3857413;91;21063;-86
2022/06/27 11:48:18;;;;;;;4.10;3.20;;;;;;;35.70;36.43;99057.67;3676851;96;21159;-87
2022/06/27 11:54:20;;;;;;;3.98;2.80;;;;;;;35.97;35.32;99049.95;3678800;92;21151;-86
2022/06/27 12:00:26;;;;;;;4.53;3.15;;;;;;;35.90;34.45;99051.38;3829869;91;21019;-87
2022/06/27 12:06:29;;;;;;;3.83;3.37;;;;;;;35.81;34.75;99048.94;3839458;91;21079;-88
2022/06/27 12:12:30;;;;;;;7.08;3.55;;;;;;;35.44;34.29;99040.52;3831880;91;21079;-86
2022/06/27 12:18:37;;;;;;;8.40;3.80;;;;;;;34.90;34.14;99032.20;3840657;91;21137;-87
2022/06/27 12:24:39;;;;;;;4.42;3.52;;;;;;;34.49;34.96;99030.42;3836816;91;21098;-87
2022/06/27 12:30:40;;;;;;;4.97;3.40;;;;;;;34.07;34.92;99028.35;3840312;91;21543;-88
2022/06/27 12:36:42;;;;;;;3.83;3.10;;;;;;;33.51;35.71;99024.53;3849150;91;21087;-87
2022/06/27 12:42:43;;;;;;;6.47;3.85;;;;;;;33.07;36.39;99022.05;3839599;91;21668;-87
2022/06/27 12:48:45;;;;;;;6.25;3.83;;;;;;;32.39;36.76;99022.20;3840543;91;21149;-86
2022/06/27 12:54:46;;;;;;;6.92;3.77;;;;;;;31.92;37.37;99022.72;3838031;91;21701;-86
2022/06/27 13:00:48;;;;;;;4.45;3.50;;;;;;;32.04;37.72;99022.05;3840137;91;21063;-88
2022/06/27 13:06:49;;;;;;;4.58;4.15;;;;;;;32.11;37.26;99020.10;3846292;91;21096;-87
2022/06/27 13:12:51;;;;;;;6.03;3.95;;;;;;;32.21;37.30;99016.45;3843452;91;21518;-88
2022/06/27 13:18:52;;;;;;;5.87;4.03;;;;;;;32.21;37.79;99013.62;3849318;91;21059;-86
2022/06/27 13:24:54;;;;;;;7.25;3.80;;;;;;;32.31;37.63;99012.67;3840409;91;21099;-87
2022/06/27 13:30:55;;;;;;;10.43;4.28;;;;;;;32.24;35.90;99006.91;3841407;91;21146;-87
2022/06/27 13:36:56;;;;;;;5.37;3.87;;;;;;;32.16;36.80;99011.57;3835825;91;21649;-87
2022/06/27 13:42:59;;;;;;;4.90;4.22;;;;;;;32.14;36.79;99007.73;3842898;91;21063;-87
2022/06/27 13:49:01;;;;;;;5.35;3.60;;;;;;;31.95;36.64;99018.20;3843657;91;21024;-87
2022/06/27 13:55:03;;;;;;;4.35;3.87;;;;;;;31.55;36.88;99009.53;3845156;91;21047;-87
2022/06/27 14:01:05;;;;;;;7.22;3.42;;;;;;;31.20;37.30;98998.73;3852167;91;21132;-86
2022/06/27 14:13:26;;;;;;;5.50;3.83;;;;;;;31.19;38.41;99009.14;3841047;91;21055;-87
2022/06/27 14:19:28;;;;;;;5.62;4.03;;;;;;;31.43;37.99;99003.77;3842320;91;21166;-87
2022/06/27 14:25:29;;;;;;;3.87;3.35;;;;;;;31.64;38.13;98992.27;3856547;91;21020;-86
2022/06/27 14:31:30;;;;;;;3.65;3.35;;;;;;;31.75;37.79;98992.24;3839086;91;21615;-88
2022/06/27 14:37:31;;;;;;;6.22;3.75;;;;;;;31.68;37.84;98989.96;3842673;91;21107;-86
2022/06/27 14:43:33;;;;;;;4.33;3.83;;;;;;;31.68;37.07;98991.38;3847252;91;21059;-87
2022/06/27 14:49:35;;;;;;;6.25;4.10;;;;;;;31.49;37.49;98990.38;3850309;91;22119;-86
2022/06/27 14:55:36;;;;;;;7.42;4.08;;;;;;;31.17;37.64;98981.38;3839118;91;21079;-86
2022/06/27 15:01:38;;;;;;;6.50;3.60;;;;;;;30.84;38.15;98989.84;3841239;91;21061;-86
2022/06/27 15:07:39;;;;;;;5.33;3.55;;;;;;;30.63;38.07;98981.46;3841703;91;21623;-86
2022/06/27 15:13:40;;;;;;;4.17;3.80;;;;;;;30.50;38.34;98984.77;3839769;91;21138;-87
2022/06/27 15:19:42;;;;;;;4.17;3.80;;;;;;;30.34;38.75;98979.84;3843090;91;21582;-87
2022/06/27 15:25:43;;;;;;;4.03;3.50;;;;;;;30.17;38.97;98976.17;3850310;91;21718;-87
2022/06/27 15:31:44;;;;;;;7.15;3.77;;;;;;;30.17;39.33;98977.58;3845740;91;21125;-87
2022/06/27 15:37:54;;;;;;;5.12;3.62;;;;;;;30.30;39.33;98980.72;3844368;91;21567;-86
2022/06/27 15:50:57;;;;;;;4.50;3.65;;;;;;;30.40;39.46;98978.44;3718506;94;22373;-87
2022/06/27 15:57:07;;;;;;;4.28;3.70;;;;;;;30.21;39.95;98985.19;3780072;93;21180;-87
2022/06/27 16:03:10;;;;;;;5.37;3.47;;;;;;;30.00;40.45;98988.67;3784450;93;21088;-87
2022/06/27 16:09:24;;;;;;;6.10;3.58;;;;;;;30.00;40.44;98983.80;3843028;91;21108;-87
2022/06/27 16:15:27;;;;;;;6.17;3.65;;;;;;;30.02;40.35;98978.41;3844949;91;21167;-84
2022/06/27 16:21:29;;;;;;;6.17;3.10;;;;;;;30.18;40.00;98992.48;3846347;91;21146;-87
2022/06/27 16:27:31;;;;;;;4.92;3.52;;;;;;;30.23;40.15;98983.27;3850415;91;21125;-86
2022/06/27 16:33:35;;;;;;;8.08;3.33;;;;;;;30.19;40.09;98985.54;3795649;93;21143;-87
2022/06/27 16:39:39;;;;;;;5.05;3.72;;;;;;;30.13;39.72;98981.27;3865445;91;21194;-86
2022/06/27 16:45:55;;;;;;;6.58;3.60;;;;;;;30.06;40.17;98983.19;3851853;91;21055;-87
2022/06/27 16:52:00;;;;;;;6.27;3.47;;;;;;;29.99;40.27;98981.48;3859112;91;21039;-86
2022/06/27 16:58:03;;;;;;;4.05;3.52;;;;;;;29.90;40.21;98981.05;3862405;91;21185;-85
2022/06/27 17:04:15;;;;;;;5.25;3.67;;;;;;;29.90;40.03;98983.09;3849938;91;22175;-86
2022/06/27 17:10:27;;;;;;;6.60;3.62;;;;;;;29.84;40.36;98989.35;3842037;91;21662;-87
2022/06/27 17:16:34;;;;;;;4.35;3.40;;;;;;;29.73;40.54;98990.70;3839549;91;21641;-86
2022/06/27 17:23:00;;;;;;;;;;;;;;;29.68;40.47;98985.83;3848167;91;21096;-87
2022/06/27 17:29:10;;;;;;;4.25;3.62;;;;;;;29.56;40.82;98984.16;3846722;91;20128;-87
2022/06/27 17:35:11;;;;;;;4.15;3.20;;;;;;;29.44;40.86;98989.61;3842649;91;21132;-87
2022/06/27 17:41:19;;;;;;;5.30;3.77;;;;;;;29.29;41.13;98992.57;3815836;92;21076;-87
2022/06/27 17:47:21;;;;;;;5.42;3.37;;;;;;;29.08;41.49;98991.89;3847922;91;21650;-85
2022/06/27 17:53:28;;;;;;;7.22;3.72;;;;;;;28.89;41.69;98992.73;3840553;91;21158;-86
2022/06/27 17:59:29;;;;;;;5.00;3.75;;;;;;;28.72;41.92;98989.00;3855551;91;21106;-86
2022/06/27 18:05:45;;;;;;;4.87;3.67;;;;;;;28.57;42.15;98993.32;3845260;91;22038;-86
2022/06/27 18:11:49;;;;;;;5.45;3.62;;;;;;;28.42;42.47;98993.25;3838458;91;21101;-86
2022/06/27 18:17:50;;;;;;;6.55;3.67;;;;;;;28.28;42.63;98995.53;3853600;91;21059;-86
2022/06/27 18:23:54;;;;;;;8.35;3.87;;;;;;;28.13;42.87;99000.48;3851839;91;22055;-87
2022/06/27 18:30:03;;;;;;;3.70;3.30;;;;;;;27.99;43.11;99006.30;3849145;91;21736;-86
2022/06/27 18:36:18;;;;;;;5.92;4.45;;;;;;;27.79;43.46;99010.48;3846488;91;21118;-86
2022/06/27 18:42:34;;;;;;;8.03;4.50;;;;;;;27.57;43.94;99012.34;3850580;91;21112;-86
2022/06/27 18:48:36;;;;;;;;;;;;;;;27.34;44.45;99012.50;3849323;91;21062;-86
2022/06/27 18:54:46;;;;;;;7.20;4.62;;;;;;;27.02;45.39;99021.89;3847780;91;20785;-86
2022/06/27 19:01:00;;;;;;;8.10;4.92;;;;;;;26.72;45.74;99035.16;3868340;91;21078;-86
2022/06/27 19:07:03;;;;;;;10.55;5.30;;;;;;;26.48;46.31;99040.66;3844815;91;22165;-86
2022/06/27 19:13:12;;;;;;;10.82;5.42;;;;;;;26.14;47.11;99058.22;3851392;91;21132;-85
2022/06/27 19:19:13;;;;;;;6.62;5.30;;;;;;;25.86;48.03;99065.84;3853441;91;21177;-85
2022/06/27 19:25:15;;;;;;;6.58;5.65;;;;;;;25.60;48.85;99073.15;3843287;91;21102;-86
2022/06/27 19:31:21;;;;;;;10.15;6.12;;;;;;;25.28;49.64;99082.26;3885964;91;21043;-85
2022/06/27 19:37:28;;;;;;;10.60;5.57;;;;;;;25.02;50.52;99083.89;3850466;91;21138;-85
2022/06/27 19:43:38;;;;;;;7.80;6.05;;;;;;;24.74;51.03;99059.98;3863196;91;22322;-85
2022/06/27 19:49:42;;;;;;;9.85;6.55;;;;;;;24.57;51.58;99074.26;3864722;91;21058;-85
2022/06/27 19:55:44;;;;;;;13.10;7.58;;;;;;;24.30;52.68;99082.66;3817188;92;21040;-85
2022/06/27 20:01:45;;;;;;;12.15;7.08;;;;;;;24.08;53.58;99080.61;3826531;92;21112;-85
2022/06/27 20:07:50;;;;;;;13.48;7.92;;;;;;;23.92;54.52;99082.86;3813870;91;21080;-85
2022/06/27 20:13:58;;;;;;;11.22;7.50;;;;;;;23.78;55.12;99081.44;3826436;92;21596;-85
2022/06/27 20:20:10;;;;;;;11.05;6.47;;;;;;;23.57;56.02;99082.92;3821550;91;21103;-85
2022/06/27 20:26:15;;;;;;;9.30;6.97;;;;;;;23.34;57.50;99089.79;3820723;92;21130;-83
2022/06/27 20:32:16;;;;;;;14.53;7.80;;;;;;;23.30;57.75;99086.98;3843938;91;21088;-84
2022/06/27 20:38:21;;;;;;;10.13;6.30;;;;;;;23.20;57.98;99084.11;3855567;91;22222;-84
2022/06/27 20:44:22;;;;;;;15.00;7.37;;;;;;;23.06;58.46;99072.70;3739824;91;10000177;-85
2022/06/27 20:50:30;;;;;;;12.05;6.95;;;;;;;22.87;59.17;99061.25;3848337;91;21056;-85
2022/06/27 20:56:32;;;;;;;16.12;7.55;;;;;;;22.72;59.54;99060.99;3857389;91;21064;-85
2022/06/27 21:02:33;;;;;;;11.38;7.70;;;;;;;22.48;60.31;99064.05;3859431;91;21054;-85
2022/06/27 21:14:55;;;;;;;11.75;7.42;;;;;;;22.28;61.46;99063.58;3848555;91;21138;-85
2022/06/27 21:20:56;;;;;;;10.65;7.42;;;;;;;22.22;61.91;99061.20;3854589;91;21175;-84
2022/06/27 21:27:04;;;;;;;11.68;8.03;;;;;;;22.08;62.36;99046.34;3850920;91;21111;-85
2022/06/27 21:33:06;;;;;;;9.55;6.85;;;;;;;21.92;62.89;99051.30;3864492;91;21151;-85
2022/06/27 21:39:08;;;;;;;11.57;7.45;;;;;;;21.80;64.11;99051.47;3856822;91;21077;-84
2022/06/27 21:45:11;;;;;;;10.23;7.00;;;;;;;21.83;64.30;99052.00;3852287;91;21118;-85
2022/06/27 21:51:19;;;;;;;12.70;8.35;;;;;;;21.62;64.79;99050.66;3857711;91;22453;-84
2022/06/27 21:57:22;;;;;;;11.57;8.30;;;;;;;21.57;65.40;99053.20;3855769;91;21103;-84
2022/06/27 22:03:24;;;;;;;9.60;7.17;;;;;;;21.38;65.62;99059.17;3851105;91;21154;-84
2022/06/27 22:09:27;;;;;;;10.40;7.33;;;;;;;21.37;66.21;99067.98;3851914;91;21153;-84
2022/06/27 22:15:39;;;;;;;10.20;8.18;;;;;;;21.48;66.90;99074.00;3858040;91;21200;-84
2022/06/27 22:21:57;;;;;;;15.38;8.20;;;;;;;21.49;66.87;99063.02;3849390;91;21047;-83
2022/06/27 22:28:12;;;;;;;10.23;8.03;;;;;;;21.40;67.23;99066.48;3857917;91;21230;-84
2022/06/27 22:34:36;;;;;;;10.18;8.15;;;;;;;21.30;67.49;99064.01;3855678;91;21132;-84
2022/06/27 22:40:42;;;;;;;11.70;7.53;;;;;;;21.15;67.86;99057.33;3852527;91;21174;-84
2022/06/27 22:46:50;;;;;;;11.80;8.85;;;;;;;20.91;68.61;99063.77;3875528;91;21110;-84
2022/06/27 22:52:53;;;;;;;10.35;8.03;;;;;;;20.84;69.00;99074.33;3845421;91;21689;-85
2022/06/27 22:59:04;;;;;;;12.00;8.60;;;;;;;20.70;69.59;99076.92;3859349;91;21178;-84
2022/06/27 23:05:06;;;;;;;10.38;7.80;;;;;;;20.78;70.04;99083.81;3855467;91;21140;-84
2022/06/27 23:11:10;;;;;;;10.28;7.95;;;;;;;20.74;70.39;99081.76;3870698;91;21005;-84
2022/06/27 23:17:16;;;;;;;10.25;8.75;;;;;;;20.73;70.61;99089.94;3867488;91;21143;-84
2022/06/27 23:23:25;;;;;;;14.50;9.17;;;;;;;20.78;70.99;99102.53;3829960;92;21123;-84
2022/06/27 23:29:38;;;;;;;11.60;8.63;;;;;;;20.55;71.58;99103.55;3815426;92;21100;-84
2022/06/27 23:35:39;;;;;;;11.43;9.25;;;;;;;20.39;72.00;99100.03;3891646;91;21076;-84
2022/06/27 23:41:42;;;;;;;12.60;9.70;;;;;;;20.16;72.48;99103.20;3890372;91;21599;-83
2022/06/27 23:47:44;;;;;;;10.43;9.33;;;;;;;19.99;72.94;99091.11;3845830;91;21067;-83
2022/06/27 23:53:48;;;;;;;10.82;9.05;;;;;;;19.90;73.40;99090.94;3855753;91;21119;-84
2022/06/27 23:59:52;;;;;;;10.98;9.38;;;;;;;19.82;73.86;99081.22;3840953;91;21102;-84
